createdAt,value
2018-03-02T00:01:02.441Z,45.65
2018-03-02T00:02:06.512Z,40.70
2018-03-02T00:03:10.848Z,43.95
2018-03-02T00:04:15.160Z,43.15
2018-03-02T00:05:19.090Z,39.53
2018-03-02T00:06:23.064Z,40.40
2018-03-02T00:07:27.115Z,44.13
2018-03-02T00:08:31.324Z,48.25
2018-03-02T00:09:36.086Z,53.53
2018-03-02T00:10:40.379Z,43.10
2018-03-02T00:11:44.326Z,49.87
2018-03-02T00:12:48.999Z,50.53
2018-03-02T00:13:53.511Z,47.50
2018-03-02T00:14:57.847Z,40.25
2018-03-02T00:16:01.726Z,41.25
2018-03-02T00:17:05.664Z,46.70
2018-03-02T00:18:10.319Z,43.50
2018-03-02T00:19:14.207Z,36.30
2018-03-02T00:20:18.925Z,41.53
2018-03-02T00:21:23.019Z,34.42
2018-03-02T00:22:26.948Z,42.83
2018-03-02T00:23:30.852Z,36.58
2018-03-02T00:24:35.159Z,35.05
2018-03-02T00:25:39.047Z,40.00
2018-03-02T00:26:42.928Z,34.85
2018-03-02T00:27:46.838Z,33.45
2018-03-02T00:28:50.708Z,36.70
2018-03-02T00:29:54.648Z,48.67
2018-03-02T00:30:58.464Z,37.75
2018-03-02T00:32:02.521Z,37.97
2018-03-02T00:33:06.734Z,38.65
2018-03-02T00:34:10.750Z,34.63
2018-03-02T00:35:14.691Z,41.67
2018-03-02T00:36:19.294Z,37.08
2018-03-02T00:37:23.996Z,39.45
2018-03-02T00:38:27.890Z,37.25
2018-03-02T00:39:32.161Z,35.17
2018-03-02T00:40:36.206Z,39.70
2018-03-02T00:41:40.191Z,41.30
2018-03-02T00:42:43.990Z,41.10
2018-03-02T00:43:47.919Z,38.03
2018-03-02T00:44:52.566Z,46.00
2018-03-02T00:45:57.505Z,40.08
2018-03-02T00:47:02.063Z,38.23
2018-03-02T00:48:06.724Z,39.30
2018-03-02T00:49:11.379Z,39.47
2018-03-02T00:50:15.459Z,37.85
2018-03-02T00:51:19.919Z,41.33
2018-03-02T00:52:24.474Z,37.78
2018-03-02T00:53:30.044Z,38.33
2018-03-02T00:54:34.209Z,37.28
2018-03-02T00:55:38.522Z,37.63
2018-03-02T00:56:42.781Z,36.30
2018-03-02T00:57:47.874Z,38.40
2018-03-02T00:58:51.947Z,38.17
2018-03-02T00:59:56.201Z,40.92
2018-03-02T01:01:00.993Z,39.28
2018-03-02T01:02:05.056Z,41.00
2018-03-02T01:03:10.142Z,37.08
2018-03-02T01:04:14.317Z,40.45
2018-03-02T01:05:18.304Z,38.65
2018-03-02T01:06:22.145Z,43.08
2018-03-02T01:07:26.801Z,39.83
2018-03-02T01:08:30.789Z,41.30
2018-03-02T01:09:34.950Z,41.67
2018-03-02T01:10:39.232Z,36.95
2018-03-02T01:11:43.227Z,47.80
2018-03-02T01:12:47.263Z,42.20
2018-03-02T01:13:52.060Z,38.30
2018-03-02T01:14:56.415Z,43.33
2018-03-02T01:16:01.213Z,43.67
2018-03-02T01:17:06.054Z,43.25
2018-03-02T01:18:10.321Z,40.05
2018-03-02T01:19:14.452Z,37.42
2018-03-02T01:20:19.263Z,38.88
2018-03-02T01:21:24.076Z,35.85
2018-03-02T01:22:29.380Z,39.67
2018-03-02T01:23:33.465Z,37.27
2018-03-02T01:24:37.801Z,42.37
2018-03-02T01:25:41.818Z,42.45
2018-03-02T01:26:46.673Z,38.30
2018-03-02T01:27:51.034Z,40.72
2018-03-02T01:28:56.493Z,41.22
2018-03-02T01:30:01.365Z,37.40
2018-03-02T01:31:05.496Z,40.55
2018-03-02T01:32:09.589Z,36.97
2018-03-02T01:33:13.944Z,40.45
2018-03-02T01:34:18.358Z,39.17
2018-03-02T01:35:22.456Z,36.88
2018-03-02T01:36:26.756Z,40.40
2018-03-02T01:37:30.625Z,40.35
2018-03-02T01:38:35.294Z,45.12
2018-03-02T01:39:39.542Z,41.50
2018-03-02T01:40:43.964Z,46.00
2018-03-02T01:41:48.092Z,39.03
2018-03-02T01:42:51.989Z,42.35
2018-03-02T01:43:56.243Z,39.70
2018-03-02T01:45:00.202Z,38.58
2018-03-02T01:46:04.295Z,39.42
2018-03-02T01:47:08.227Z,44.65
2018-03-02T01:48:12.124Z,41.42
2018-03-02T01:49:16.225Z,41.63
2018-03-02T01:50:20.329Z,42.25
2018-03-02T01:51:33.622Z,41.20
2018-03-02T01:52:37.721Z,43.60
2018-03-02T01:53:41.634Z,43.70
2018-03-02T01:54:45.517Z,42.80
2018-03-02T01:55:49.441Z,43.50
2018-03-02T01:56:53.508Z,43.08
2018-03-02T01:57:57.841Z,41.42
2018-03-02T01:59:01.956Z,44.03
2018-03-02T02:00:06.055Z,35.28
2018-03-02T02:01:09.915Z,44.05
2018-03-02T02:02:13.981Z,48.72
2018-03-02T02:03:18.184Z,44.05
2018-03-02T02:04:22.644Z,43.95
2018-03-02T02:05:26.669Z,38.50
2018-03-02T02:06:30.682Z,44.97
2018-03-02T02:07:34.654Z,41.33
2018-03-02T02:08:38.761Z,41.20
2018-03-02T02:09:42.832Z,42.13
2018-03-02T02:10:46.972Z,44.38
2018-03-02T02:11:50.890Z,46.70
2018-03-02T02:12:54.812Z,45.55
2018-03-02T02:13:59.693Z,47.22
2018-03-02T02:15:03.762Z,40.95
2018-03-02T02:16:08.093Z,41.08
2018-03-02T02:17:11.969Z,37.40
2018-03-02T02:18:15.825Z,40.88
2018-03-02T02:19:20.002Z,39.03
2018-03-02T02:20:23.920Z,48.15
2018-03-02T02:21:27.730Z,43.92
2018-03-02T02:22:32.619Z,41.78
2018-03-02T02:23:36.897Z,39.65
2018-03-02T02:24:41.186Z,40.28
2018-03-02T02:25:46.224Z,43.90
2018-03-02T02:26:50.189Z,46.35
2018-03-02T02:27:55.211Z,40.10
2018-03-02T02:28:59.760Z,41.67
2018-03-02T02:30:04.226Z,42.60
2018-03-02T02:31:08.118Z,48.60
2018-03-02T02:32:12.102Z,43.17
2018-03-02T02:33:16.697Z,38.20
2018-03-02T02:34:20.831Z,46.00
2018-03-02T02:35:24.848Z,43.22
2018-03-02T02:36:28.812Z,43.05
2018-03-02T02:37:32.696Z,47.20
2018-03-02T02:38:36.759Z,44.10
2018-03-02T02:39:40.679Z,49.50
2018-03-02T02:40:44.525Z,40.70
2018-03-02T02:41:49.928Z,42.95
2018-03-02T02:42:53.832Z,44.85
2018-03-02T02:43:57.928Z,49.80
2018-03-02T02:45:02.165Z,45.35
2018-03-02T02:46:06.376Z,43.33
2018-03-02T02:47:11.539Z,43.47
2018-03-02T02:48:15.927Z,44.30
2018-03-02T02:49:20.353Z,38.35
2018-03-02T02:50:24.437Z,44.78
2018-03-02T02:51:29.235Z,41.97
2018-03-02T02:52:35.050Z,47.40
2018-03-02T02:53:39.481Z,39.95
2018-03-02T02:54:45.063Z,43.40
2018-03-02T02:55:49.386Z,47.95
2018-03-02T02:56:53.817Z,44.22
2018-03-02T02:57:58.446Z,44.42
2018-03-02T02:59:02.529Z,48.55
2018-03-02T03:00:06.891Z,42.88
2018-03-02T03:01:12.174Z,40.80
2018-03-02T03:02:16.767Z,45.90
2018-03-02T03:03:20.857Z,45.08
2018-03-02T03:04:25.054Z,43.45
2018-03-02T03:05:29.500Z,44.10
2018-03-02T03:06:34.513Z,44.30
2018-03-02T03:07:39.210Z,41.15
2018-03-02T03:08:43.930Z,39.35
2018-03-02T03:09:48.305Z,42.92
2018-03-02T03:10:53.397Z,54.43
2018-03-02T03:11:58.484Z,79.37
2018-03-02T03:13:03.056Z,49.97
2018-03-02T03:14:07.308Z,44.67
2018-03-02T03:15:11.910Z,45.03
2018-03-02T03:16:15.865Z,42.50
2018-03-02T03:17:20.206Z,48.87
2018-03-02T03:18:24.158Z,42.72
2018-03-02T03:19:28.261Z,42.85
2018-03-02T03:20:32.357Z,47.13
2018-03-02T03:21:36.481Z,42.65
2018-03-02T03:22:40.585Z,52.80
2018-03-02T03:23:44.549Z,54.63
2018-03-02T03:24:48.480Z,48.45
2018-03-02T03:25:52.565Z,51.92
2018-03-02T03:26:56.857Z,47.72
2018-03-02T03:28:00.641Z,45.83
2018-03-02T03:29:04.653Z,39.25
2018-03-02T03:30:08.552Z,51.72
2018-03-02T03:31:12.869Z,41.42
2018-03-02T03:32:18.045Z,41.53
2018-03-02T03:33:23.058Z,43.05
2018-03-02T03:34:28.402Z,46.10
2018-03-02T03:35:33.559Z,49.47
2018-03-02T03:36:37.607Z,47.10
2018-03-02T03:37:42.902Z,64.93
2018-03-02T03:38:47.165Z,50.38
2018-03-02T03:39:51.729Z,56.28
2018-03-02T03:40:56.301Z,57.58
2018-03-02T03:42:00.735Z,52.60
2018-03-02T03:43:05.022Z,44.22
2018-03-02T03:44:10.183Z,43.90
2018-03-02T03:45:14.200Z,46.10
2018-03-02T03:46:18.566Z,45.73
2018-03-02T03:47:22.800Z,46.60
2018-03-02T03:48:26.899Z,45.58
2018-03-02T03:49:31.054Z,49.88
2018-03-02T03:50:35.834Z,50.80
2018-03-02T03:51:41.925Z,46.53
2018-03-02T03:52:46.496Z,46.25
2018-03-02T03:53:50.522Z,47.45
2018-03-02T03:54:55.674Z,41.42
2018-03-02T03:56:01.131Z,49.08
2018-03-02T03:57:05.204Z,44.10
2018-03-02T03:58:09.413Z,43.90
2018-03-02T03:59:14.061Z,53.00
2018-03-02T04:00:18.473Z,49.60
2018-03-02T04:01:23.401Z,44.97
2018-03-02T04:02:27.801Z,43.75
2018-03-02T04:03:32.216Z,43.97
2018-03-02T04:04:36.409Z,41.30
2018-03-02T04:05:40.702Z,45.60
2018-03-02T04:06:45.037Z,42.25
2018-03-02T04:07:49.510Z,50.58
2018-03-02T04:08:53.359Z,42.95
2018-03-02T04:09:57.500Z,49.58
2018-03-02T04:11:01.610Z,46.13
2018-03-02T04:12:05.537Z,47.83
2018-03-02T04:13:09.431Z,45.00
2018-03-02T04:14:13.909Z,48.95
2018-03-02T04:15:18.048Z,47.28
2018-03-02T04:16:21.884Z,41.65
2018-03-02T04:17:25.699Z,48.78
2018-03-02T04:18:30.401Z,47.83
2018-03-02T04:19:35.054Z,48.03
2018-03-02T04:20:38.865Z,47.25
2018-03-02T04:21:43.079Z,44.97
2018-03-02T04:22:47.103Z,44.85
2018-03-02T04:23:51.050Z,42.15
2018-03-02T04:24:54.970Z,42.20
2018-03-02T04:25:58.867Z,48.85
2018-03-02T04:27:02.961Z,56.00
2018-03-02T04:28:07.375Z,58.25
2018-03-02T04:29:11.980Z,47.30
2018-03-02T04:30:16.069Z,43.35
2018-03-02T04:31:20.229Z,49.50
2018-03-02T04:32:25.333Z,45.35
2018-03-02T04:33:29.562Z,46.63
2018-03-02T04:34:34.578Z,43.87
2018-03-02T04:35:39.410Z,47.47
2018-03-02T04:36:43.501Z,44.17
2018-03-02T04:37:47.820Z,49.75
2018-03-02T04:38:52.582Z,44.90
2018-03-02T04:39:56.946Z,43.75
2018-03-02T04:41:00.894Z,44.92
2018-03-02T04:42:04.842Z,42.35
2018-03-02T04:43:09.511Z,46.50
2018-03-02T04:44:13.401Z,45.65
2018-03-02T04:45:17.238Z,49.40
2018-03-02T04:46:21.232Z,41.92
2018-03-02T04:47:25.345Z,46.80
2018-03-02T04:48:29.515Z,48.42
2018-03-02T04:49:33.904Z,51.45
2018-03-02T04:50:37.975Z,48.15
2018-03-02T04:51:42.228Z,46.47
2018-03-02T04:52:46.313Z,47.28
2018-03-02T04:53:50.359Z,45.63
2018-03-02T04:54:54.782Z,45.38
2018-03-02T04:55:59.182Z,50.97
2018-03-02T04:57:03.092Z,47.78
2018-03-02T04:58:08.151Z,51.67
2018-03-02T04:59:12.275Z,42.62
2018-03-02T05:00:16.101Z,46.92
2018-03-02T05:01:20.989Z,48.40
2018-03-02T05:02:25.025Z,48.92
2018-03-02T05:03:28.983Z,43.10
2018-03-02T05:04:33.172Z,46.70
2018-03-02T05:05:37.157Z,45.70
2018-03-02T05:06:41.262Z,47.17
2018-03-02T05:07:45.391Z,45.50
2018-03-02T05:08:49.300Z,42.28
2018-03-02T05:09:53.771Z,44.42
2018-03-02T05:10:57.901Z,49.38
2018-03-02T05:12:01.912Z,51.85
2018-03-02T05:13:05.721Z,54.30
2018-03-02T05:14:09.698Z,49.08
2018-03-02T05:15:14.425Z,47.90
2018-03-02T05:16:18.746Z,44.60
2018-03-02T05:17:22.884Z,46.95
2018-03-02T05:18:27.693Z,55.33
2018-03-02T05:19:32.551Z,48.35
2018-03-02T05:20:36.591Z,45.97
2018-03-02T05:21:40.626Z,47.33
2018-03-02T05:22:44.668Z,48.28
2018-03-02T05:23:49.747Z,46.83
2018-03-02T05:24:54.496Z,53.25
2018-03-02T05:25:58.630Z,43.10
2018-03-02T05:27:03.441Z,45.65
2018-03-02T05:28:08.562Z,50.50
2018-03-02T05:29:12.447Z,45.05
2018-03-02T05:30:16.403Z,48.53
2018-03-02T05:31:20.346Z,44.22
2018-03-02T05:32:26.558Z,50.67
2018-03-02T05:33:31.163Z,52.22
2018-03-02T05:34:36.102Z,49.90
2018-03-02T05:35:40.744Z,47.45
2018-03-02T05:36:44.765Z,48.75
2018-03-02T05:37:48.806Z,46.97
2018-03-02T05:38:53.573Z,46.90
2018-03-02T05:39:57.941Z,45.50
2018-03-02T05:41:02.041Z,47.80
2018-03-02T05:42:07.106Z,47.13
2018-03-02T05:43:11.141Z,47.45
2018-03-02T05:44:15.413Z,43.00
2018-03-02T05:45:19.436Z,44.95
2018-03-02T05:46:23.484Z,50.10
2018-03-02T05:47:28.298Z,47.58
2018-03-02T05:48:32.317Z,47.95
2018-03-02T05:49:36.512Z,48.92
2018-03-02T05:50:40.576Z,51.72
2018-03-02T05:51:44.635Z,48.67
2018-03-02T05:52:48.785Z,42.78
2018-03-02T05:53:54.361Z,48.58
2018-03-02T05:54:58.361Z,48.03
2018-03-02T05:56:02.389Z,46.13
2018-03-02T05:57:06.371Z,49.65
2018-03-02T05:58:10.406Z,47.13
2018-03-02T05:59:14.681Z,41.50
2018-03-02T06:00:18.805Z,47.28
2018-03-02T06:01:22.862Z,49.70
2018-03-02T06:02:26.871Z,45.67
2018-03-02T06:03:30.828Z,56.00
2018-03-02T06:04:35.695Z,47.53
2018-03-02T06:05:43.241Z,48.83
2018-03-02T06:06:48.112Z,52.97
2018-03-02T06:07:52.169Z,48.33
2018-03-02T06:08:56.190Z,48.72
2018-03-02T06:10:00.414Z,50.78
2018-03-02T06:11:04.468Z,48.08
2018-03-02T06:12:09.567Z,47.50
2018-03-02T06:13:13.539Z,53.15
2018-03-02T06:14:17.508Z,44.35
2018-03-02T06:15:21.451Z,53.22
2018-03-02T06:16:25.506Z,48.87
2018-03-02T06:17:29.370Z,48.65
2018-03-02T06:18:34.466Z,54.97
2018-03-02T06:19:38.278Z,55.88
2018-03-02T06:20:42.109Z,47.03
2018-03-02T06:21:45.999Z,46.47
2018-03-02T06:22:50.948Z,49.55
2018-03-02T06:23:54.956Z,50.35
2018-03-02T06:24:59.437Z,45.83
2018-03-02T06:26:04.253Z,51.92
2018-03-02T06:27:09.014Z,46.13
2018-03-02T06:28:13.013Z,49.05
2018-03-02T06:29:17.032Z,54.30
2018-03-02T06:30:21.057Z,55.30
2018-03-02T06:31:25.877Z,56.00
2018-03-02T06:32:29.847Z,50.83
2018-03-02T06:33:33.800Z,46.50
2018-03-02T06:34:38.426Z,51.33
2018-03-02T06:35:42.241Z,49.10
2018-03-02T06:36:46.332Z,53.78
2018-03-02T06:37:50.243Z,49.60
2018-03-02T06:38:54.164Z,48.67
2018-03-02T06:39:58.088Z,51.10
2018-03-02T06:41:06.458Z,46.37
2018-03-02T06:42:11.136Z,49.17
2018-03-02T06:43:15.280Z,53.28
2018-03-02T06:44:19.372Z,47.60
2018-03-02T06:45:23.408Z,52.25
2018-03-02T06:46:28.236Z,50.28
2018-03-02T06:47:33.269Z,55.17
2018-03-02T06:48:39.982Z,49.67
2018-03-02T06:51:01.558Z,56.88
2018-03-02T06:52:07.891Z,49.47
2018-03-02T06:53:12.831Z,51.40
2018-03-02T06:54:17.055Z,47.60
2018-03-02T06:55:21.070Z,49.87
2018-03-02T06:56:25.107Z,61.58
2018-03-02T06:57:29.177Z,54.45
2018-03-02T06:58:33.168Z,45.60
2018-03-02T06:59:37.466Z,53.22
2018-03-02T07:00:41.381Z,48.55
2018-03-02T07:01:45.253Z,48.00
2018-03-02T07:02:49.321Z,50.28
2018-03-02T07:03:54.146Z,62.17
2018-03-02T07:04:58.808Z,56.47
2018-03-02T07:06:02.951Z,54.55
2018-03-02T07:07:06.785Z,54.75
2018-03-02T07:08:10.689Z,54.13
2018-03-02T07:09:14.532Z,54.60
2018-03-02T07:10:18.441Z,52.33
2018-03-02T07:11:22.748Z,51.97
2018-03-02T07:12:26.879Z,52.25
2018-03-02T07:13:30.807Z,51.30
2018-03-02T07:14:34.721Z,57.35
2018-03-02T07:15:38.552Z,53.28
2018-03-02T07:16:43.306Z,56.45
2018-03-02T07:17:47.434Z,50.97
2018-03-02T07:18:51.351Z,52.88
2018-03-02T07:19:55.197Z,53.58
2018-03-02T07:20:59.280Z,44.10
2018-03-02T07:22:03.448Z,53.95
2018-03-02T07:23:07.273Z,52.75
2018-03-02T07:24:12.187Z,51.63
2018-03-02T07:25:16.792Z,47.83
2018-03-02T07:26:20.678Z,45.60
2018-03-02T07:27:24.593Z,48.40
2018-03-02T07:28:29.253Z,45.88
2018-03-02T07:29:33.629Z,51.40
2018-03-02T07:30:38.522Z,45.63
2018-03-02T07:31:42.668Z,51.58
2018-03-02T07:32:46.584Z,57.55
2018-03-02T07:33:50.420Z,55.03
2018-03-02T07:34:54.268Z,53.90
2018-03-02T07:35:58.396Z,48.28
2018-03-02T07:37:02.301Z,49.92
2018-03-02T07:38:06.071Z,50.58
2018-03-02T07:39:10.076Z,58.63
2018-03-02T07:40:14.191Z,50.30
2018-03-02T07:41:18.271Z,49.08
2018-03-02T07:42:22.590Z,50.65
2018-03-02T07:43:26.782Z,59.42
2018-03-02T07:44:30.767Z,60.38
2018-03-02T07:45:34.787Z,54.05
2018-03-02T07:46:38.773Z,57.42
2018-03-02T07:47:43.092Z,52.13
2018-03-02T07:48:47.037Z,47.83
2018-03-02T07:49:50.873Z,53.75
2018-03-02T07:50:54.735Z,57.10
2018-03-02T07:51:59.416Z,53.50
2018-03-02T07:53:03.315Z,50.55
2018-03-02T07:54:07.442Z,53.22
2018-03-02T07:55:11.269Z,53.63
2018-03-02T07:56:15.146Z,58.80
2018-03-02T07:57:19.057Z,50.30
2018-03-02T07:58:24.651Z,53.20
2018-03-02T07:59:28.735Z,60.35
2018-03-02T08:00:32.998Z,59.28
2018-03-02T08:01:37.897Z,58.70
2018-03-02T08:02:42.726Z,48.13
2018-03-02T08:03:47.532Z,51.13
2018-03-02T08:04:51.500Z,52.85
2018-03-02T08:05:55.746Z,49.42
2018-03-02T08:07:00.546Z,42.50
2018-03-02T08:08:04.695Z,54.05
2018-03-02T08:09:09.578Z,53.67
2018-03-02T08:10:13.418Z,47.45
2018-03-02T08:11:17.324Z,55.30
2018-03-02T08:12:21.552Z,51.60
2018-03-02T08:13:25.456Z,54.00
2018-03-02T08:14:29.264Z,51.45
2018-03-02T08:15:33.097Z,59.05
2018-03-02T08:16:37.002Z,62.42
2018-03-02T08:17:40.822Z,49.15
2018-03-02T08:18:44.970Z,45.38
2018-03-02T08:19:49.665Z,48.80
2018-03-02T08:20:53.479Z,51.75
2018-03-02T08:21:57.557Z,49.00
2018-03-02T08:23:01.634Z,50.70
2018-03-02T08:24:05.810Z,48.08
2018-03-02T08:25:10.148Z,58.47
2018-03-02T08:26:14.164Z,45.03
2018-03-02T08:27:18.266Z,50.92
2018-03-02T08:28:22.437Z,46.50
2018-03-02T08:29:26.464Z,50.70
2018-03-02T08:30:30.550Z,52.62
2018-03-02T08:31:34.585Z,49.87
2018-03-02T08:32:38.719Z,54.80
2018-03-02T08:33:43.153Z,45.70
2018-03-02T08:34:46.965Z,57.30
2018-03-02T08:35:50.815Z,49.88
2018-03-02T08:36:55.752Z,51.53
2018-03-02T08:37:59.940Z,48.70
2018-03-02T08:39:05.273Z,60.25
2018-03-02T08:40:10.087Z,53.67
2018-03-02T08:41:14.932Z,52.13
2018-03-02T08:42:19.985Z,47.62
2018-03-02T08:43:24.066Z,56.72
2018-03-02T08:44:28.096Z,50.20
2018-03-02T08:45:32.166Z,52.00
2018-03-02T08:46:37.345Z,54.97
2018-03-02T08:47:41.340Z,47.05
2018-03-02T08:48:46.106Z,54.20
2018-03-02T08:49:50.142Z,49.10
2018-03-02T08:50:54.784Z,52.33
2018-03-02T08:51:59.647Z,50.80
2018-03-02T08:53:03.729Z,50.80
2018-03-02T08:54:07.897Z,56.17
2018-03-02T08:55:12.346Z,49.03
2018-03-02T08:56:16.542Z,47.30
2018-03-02T08:57:21.293Z,55.35
2018-03-02T08:58:25.366Z,54.78
2018-03-02T08:59:29.352Z,55.17
2018-03-02T09:00:34.437Z,48.38
2018-03-02T09:01:39.184Z,49.35
2018-03-02T09:02:43.903Z,53.28
2018-03-02T09:03:48.025Z,49.75
2018-03-02T09:04:52.912Z,50.05
2018-03-02T09:05:57.189Z,51.95
2018-03-02T09:07:01.582Z,51.80
2018-03-02T09:08:05.686Z,46.80
2018-03-02T09:09:09.726Z,51.08
2018-03-02T09:10:13.899Z,51.35
2018-03-02T09:11:17.959Z,55.03
2018-03-02T09:12:22.802Z,58.05
2018-03-02T09:13:27.200Z,59.53
2018-03-02T09:14:31.932Z,50.72
2018-03-02T09:15:35.995Z,51.15
2018-03-02T09:16:40.037Z,52.45
2018-03-02T09:17:44.056Z,48.45
2018-03-02T09:18:48.048Z,46.45
2018-03-02T09:19:52.052Z,51.60
2018-03-02T09:20:55.954Z,59.78
2018-03-02T09:21:59.838Z,49.25
2018-03-02T09:23:03.894Z,49.58
2018-03-02T09:24:08.598Z,55.38
2018-03-02T09:25:12.490Z,48.87
2018-03-02T09:26:17.187Z,53.90
2018-03-02T09:27:22.078Z,52.50
2018-03-02T09:28:26.713Z,51.50
2018-03-02T09:29:30.567Z,55.50
2018-03-02T09:30:35.411Z,50.47
2018-03-02T09:31:39.441Z,50.53
2018-03-02T09:32:43.652Z,55.38
2018-03-02T09:33:47.479Z,48.83
2018-03-02T09:34:52.226Z,54.75
2018-03-02T09:35:56.129Z,50.63
2018-03-02T09:36:59.928Z,51.13
2018-03-02T09:38:03.866Z,50.70
2018-03-02T09:39:07.768Z,52.58
2018-03-02T09:40:11.774Z,53.80
2018-03-02T09:41:15.824Z,52.97
2018-03-02T09:42:19.658Z,52.60
2018-03-02T09:43:23.814Z,54.22
2018-03-02T09:44:27.762Z,54.17
2018-03-02T09:45:33.321Z,51.20
2018-03-02T09:46:38.017Z,51.30
2018-03-02T09:47:41.966Z,58.53
2018-03-02T09:48:45.921Z,53.60
2018-03-02T09:49:50.341Z,53.75
2018-03-02T09:50:55.604Z,49.00
2018-03-02T09:51:59.599Z,55.92
2018-03-02T09:53:03.700Z,49.58
2018-03-02T09:54:08.428Z,47.15
2018-03-02T09:55:12.760Z,51.40
2018-03-02T09:56:16.836Z,52.60
2018-03-02T09:57:21.084Z,49.92
2018-03-02T09:58:26.036Z,44.88
2018-03-02T09:59:30.828Z,45.53
2018-03-02T10:00:35.422Z,54.93
2018-03-02T10:01:39.755Z,49.28
2018-03-02T10:02:43.604Z,48.60
2018-03-02T10:03:47.506Z,46.50
2018-03-02T10:04:52.306Z,47.80
2018-03-02T10:05:56.689Z,56.37
2018-03-02T10:07:00.832Z,49.67
2018-03-02T10:08:05.263Z,50.45
2018-03-02T10:09:10.116Z,49.03
2018-03-02T10:10:14.960Z,47.40
2018-03-02T10:11:19.681Z,54.65
2018-03-02T10:12:23.637Z,50.50
2018-03-02T10:13:28.050Z,51.40
2018-03-02T10:14:32.202Z,49.88
2018-03-02T10:15:37.157Z,60.08
2018-03-02T10:16:42.423Z,50.58
2018-03-02T10:17:47.261Z,47.20
2018-03-02T10:18:51.360Z,49.00
2018-03-02T10:19:55.844Z,54.03
2018-03-02T10:20:59.964Z,54.45
2018-03-02T10:22:04.852Z,46.53
2018-03-02T10:23:08.909Z,53.92
2018-03-02T10:24:15.415Z,51.05
2018-03-02T10:25:19.905Z,49.80
2018-03-02T10:26:24.011Z,48.53
2018-03-02T10:27:29.063Z,54.75
2018-03-02T10:28:33.205Z,48.95
2018-03-02T10:29:37.304Z,47.20
2018-03-02T10:30:41.404Z,51.55
2018-03-02T10:31:45.651Z,58.83
2018-03-02T10:32:49.607Z,49.28
2018-03-02T10:33:54.494Z,52.58
2018-03-02T10:34:58.607Z,46.67
2018-03-02T10:36:03.600Z,47.25
2018-03-02T10:37:07.572Z,52.42
2018-03-02T10:38:11.744Z,46.27
2018-03-02T10:39:16.550Z,53.08
2018-03-02T10:40:21.256Z,48.90
2018-03-02T10:41:25.917Z,51.95
2018-03-02T10:42:30.292Z,53.70
2018-03-02T10:43:34.983Z,52.22
2018-03-02T10:44:38.988Z,50.83
2018-03-02T10:45:42.910Z,48.87
2018-03-02T10:46:47.607Z,51.88
2018-03-02T10:47:51.505Z,50.22
2018-03-02T10:48:55.440Z,47.08
2018-03-02T10:49:59.998Z,49.17
2018-03-02T10:51:03.908Z,48.33
2018-03-02T10:52:08.165Z,51.10
2018-03-02T10:53:12.193Z,49.17
2018-03-02T10:54:16.300Z,53.65
2018-03-02T10:55:20.378Z,54.28
2018-03-02T10:56:24.788Z,58.75
2018-03-02T10:57:29.517Z,52.00
2018-03-02T10:58:33.577Z,49.75
2018-03-02T10:59:38.436Z,50.83
2018-03-02T11:00:46.673Z,54.17
2018-03-02T11:01:54.781Z,53.87
2018-03-02T11:02:58.841Z,58.20
2018-03-02T11:04:03.085Z,59.45
2018-03-02T11:05:11.087Z,52.80
2018-03-02T11:06:15.904Z,47.75
2018-03-02T11:07:20.686Z,61.83
2018-03-02T11:08:25.116Z,53.20
2018-03-02T11:09:29.413Z,48.13
2018-03-02T11:10:33.562Z,48.35
2018-03-02T11:11:37.664Z,46.35
2018-03-02T11:12:41.823Z,52.05
2018-03-02T11:13:45.890Z,50.85
2018-03-02T11:14:50.066Z,51.45
2018-03-02T11:15:53.984Z,58.08
2018-03-02T11:16:57.936Z,53.97
2018-03-02T11:18:01.924Z,52.67
2018-03-02T11:19:06.342Z,48.38
2018-03-02T11:20:11.542Z,55.95
2018-03-02T11:21:15.978Z,53.25
2018-03-02T11:22:20.097Z,50.08
2018-03-02T11:23:25.047Z,56.35
2018-03-02T11:24:29.111Z,58.80
2018-03-02T11:25:34.159Z,55.35
2018-03-02T11:26:38.260Z,52.58
2018-03-02T11:27:42.351Z,51.35
2018-03-02T11:28:47.235Z,52.58
2018-03-02T11:29:51.321Z,46.45
2018-03-02T11:30:55.518Z,58.83
2018-03-02T11:31:59.605Z,50.07
2018-03-02T11:33:03.812Z,52.73
2018-03-02T11:34:08.233Z,50.20
2018-03-02T11:35:12.278Z,55.35
2018-03-02T11:36:17.037Z,58.83
2018-03-02T11:37:21.117Z,50.75
2018-03-02T11:38:26.033Z,55.28
2018-03-02T11:39:30.889Z,54.88
2018-03-02T11:40:35.192Z,49.45
2018-03-02T11:41:39.397Z,55.70
2018-03-02T11:42:43.289Z,49.85
2018-03-02T11:43:47.268Z,52.72
2018-03-02T11:44:51.127Z,51.88
2018-03-02T11:45:55.035Z,53.83
2018-03-02T11:46:59.267Z,53.67
2018-03-02T11:48:03.217Z,51.85
2018-03-02T11:49:07.141Z,45.72
2018-03-02T11:50:11.103Z,47.45
2018-03-02T11:51:14.966Z,48.33
2018-03-02T11:52:18.910Z,48.40
2018-03-02T11:53:23.339Z,49.95
2018-03-02T11:54:27.407Z,53.17
2018-03-02T11:55:31.515Z,52.70
2018-03-02T11:56:35.578Z,62.95
2018-03-02T11:57:39.404Z,63.33
2018-03-02T11:58:43.583Z,68.32
2018-03-02T11:59:47.544Z,47.50
2018-03-02T12:00:52.172Z,44.55
2018-03-02T12:01:56.814Z,52.13
2018-03-02T12:03:01.450Z,50.60
2018-03-02T12:04:05.292Z,51.10
2018-03-02T12:05:10.524Z,49.95
2018-03-02T12:06:15.462Z,50.97
2018-03-02T12:07:19.346Z,52.50
2018-03-02T12:08:24.014Z,53.30
2018-03-02T12:09:28.656Z,47.65
2018-03-02T12:10:32.634Z,55.12
2018-03-02T12:11:36.527Z,48.42
2018-03-02T12:12:40.360Z,49.50
2018-03-02T12:13:44.952Z,50.50
2018-03-02T12:14:48.804Z,50.45
2018-03-02T12:15:52.748Z,52.23
2018-03-02T12:16:56.808Z,48.10
2018-03-02T12:18:00.592Z,53.17
2018-03-02T12:19:04.432Z,46.25
2018-03-02T12:20:08.289Z,54.10
2018-03-02T12:21:12.189Z,52.65
2018-03-02T12:22:16.040Z,52.45
2018-03-02T12:23:20.166Z,55.45
2018-03-02T12:24:24.923Z,52.03
2018-03-02T12:25:29.025Z,55.90
2018-03-02T12:26:33.169Z,52.45
2018-03-02T12:27:37.949Z,48.83
2018-03-02T12:28:42.105Z,54.30
2018-03-02T12:29:47.286Z,50.55
2018-03-02T12:30:51.550Z,45.22
2018-03-02T12:31:55.518Z,51.05
2018-03-02T12:32:59.545Z,45.08
2018-03-02T12:34:03.544Z,44.70
2018-03-02T12:35:08.747Z,50.60
2018-03-02T12:36:12.764Z,49.05
2018-03-02T12:37:23.038Z,47.08
2018-03-02T12:38:26.925Z,57.75
2018-03-02T12:39:30.829Z,57.70
2018-03-02T12:40:34.716Z,48.33
2018-03-02T12:41:38.817Z,52.78
2018-03-02T12:42:42.952Z,45.10
2018-03-02T12:43:47.062Z,52.83
2018-03-02T12:44:51.230Z,50.30
2018-03-02T12:45:55.338Z,51.37
2018-03-02T12:46:59.629Z,57.15
2018-03-02T12:48:04.561Z,56.25
2018-03-02T12:49:09.109Z,54.55
2018-03-02T12:50:13.257Z,51.30
2018-03-02T12:51:17.141Z,51.22
2018-03-02T12:52:21.082Z,51.35
2018-03-02T12:53:25.667Z,44.88
2018-03-02T12:54:30.370Z,53.60
2018-03-02T12:55:35.467Z,51.92
2018-03-02T12:56:39.556Z,53.13
2018-03-02T12:57:44.072Z,53.53
2018-03-02T12:58:48.173Z,54.15
2018-03-02T12:59:52.508Z,50.97
2018-03-02T13:03:03.260Z,47.25
2018-03-02T13:04:07.397Z,55.22
2018-03-02T13:05:12.070Z,47.78
2018-03-02T13:06:16.102Z,49.53
2018-03-02T13:07:21.303Z,50.85
2018-03-02T13:08:25.479Z,50.53
2018-03-02T13:09:29.491Z,55.45
2018-03-02T13:10:33.675Z,51.08
2018-03-02T13:11:38.083Z,49.70
2018-03-02T13:12:42.126Z,55.75
2018-03-02T13:13:46.121Z,52.42
2018-03-02T13:14:50.174Z,52.13
2018-03-02T13:15:54.774Z,52.05
2018-03-02T13:16:59.432Z,51.47
2018-03-02T13:18:03.659Z,52.85
2018-03-02T13:19:08.260Z,55.65
2018-03-02T13:20:12.168Z,60.72
2018-03-02T13:21:15.996Z,57.38
2018-03-02T13:22:29.531Z,51.47
2018-03-02T13:23:34.432Z,56.28
2018-03-02T13:24:38.427Z,55.00
2018-03-02T13:25:42.283Z,50.38
2018-03-02T13:29:01.806Z,53.00
2018-03-02T13:30:06.715Z,55.12
2018-03-02T13:31:12.790Z,53.47
2018-03-02T13:32:18.635Z,54.33
2018-03-02T13:35:30.946Z,62.00
2018-03-02T13:36:36.525Z,56.50
2018-03-02T13:37:40.572Z,51.35
2018-03-02T13:38:45.360Z,56.15
2018-03-02T13:42:01.321Z,49.80
2018-03-02T13:43:05.309Z,49.55
2018-03-02T13:44:09.353Z,54.55
2018-03-02T13:45:13.228Z,54.47
2018-03-02T13:46:17.160Z,49.58
2018-03-02T13:47:21.074Z,51.95
2018-03-02T13:48:37.017Z,52.10
2018-03-02T13:50:02.931Z,56.00
2018-03-02T13:51:06.884Z,50.63
2018-03-02T13:52:11.510Z,55.53
2018-03-02T13:53:15.504Z,54.67
2018-03-02T13:54:19.355Z,54.55
2018-03-02T13:55:23.279Z,53.63
2018-03-02T13:56:36.774Z,50.08
2018-03-02T13:57:53.484Z,49.47
2018-03-02T13:58:57.596Z,57.03
2018-03-02T14:00:02.518Z,57.05